createdAt,value
2022-08-17T00:00:49.420Z,58.27
2022-08-17T00:03:25.766Z,61.74
2022-08-17T00:05:59.945Z,65.96
2022-08-17T00:08:34.561Z,64.62
2022-08-17T00:11:10.302Z,62.31
2022-08-17T00:13:48.457Z,60.74
2022-08-17T00:16:23.069Z,58.39
2022-08-17T00:19:17.959Z,58.70
2022-08-17T00:22:33.120Z,63.49
2022-08-17T00:24:42.888Z,63.54
2022-08-17T00:27:14.588Z,60.91
2022-08-17T00:29:46.881Z,57.88
2022-08-17T00:33:15.945Z,58.14
2022-08-17T00:35:13.965Z,60.24
2022-08-17T00:37:46.155Z,64.12
2022-08-17T00:40:19.332Z,64.44
2022-08-17T00:42:51.734Z,62.85
2022-08-17T00:45:23.743Z,61.21
2022-08-17T00:47:55.261Z,60.66
2022-08-17T00:50:26.848Z,57.95
2022-08-17T00:53:00.291Z,58.51
2022-08-17T00:55:32.862Z,60.90
2022-08-17T00:58:06.667Z,65.39
2022-08-17T01:00:41.942Z,65.20
2022-08-17T01:03:18.913Z,62.57
2022-08-17T01:05:51.522Z,60.95
2022-08-17T01:08:27.128Z,58.56
2022-08-17T01:11:02.475Z,58.30
2022-08-17T01:13:40.999Z,60.58
2022-08-17T01:16:17.810Z,65.74
2022-08-17T01:18:53.335Z,65.51
2022-08-17T01:21:32.876Z,62.37
2022-08-17T01:24:05.499Z,60.22
2022-08-17T01:26:37.950Z,61.42
2022-08-17T01:29:10.463Z,60.55
2022-08-17T01:31:45.728Z,59.86
2022-08-17T01:34:18.872Z,57.59
2022-08-17T01:36:52.584Z,58.77
2022-08-17T01:39:31.237Z,60.59
2022-08-17T01:42:09.429Z,65.57
2022-08-17T01:44:42.115Z,65.21
2022-08-17T01:47:13.966Z,62.52
2022-08-17T01:49:45.545Z,61.04
2022-08-17T01:52:17.973Z,58.44
2022-08-17T01:54:50.282Z,58.57
2022-08-17T01:57:21.912Z,60.82
2022-08-17T01:59:53.456Z,65.49
2022-08-17T02:02:30.475Z,65.15
2022-08-17T02:05:03.118Z,62.33
2022-08-17T02:07:59.982Z,60.55
2022-08-17T02:10:34.095Z,57.42
2022-08-17T02:13:07.096Z,58.64
2022-08-17T02:15:39.049Z,60.70
2022-08-17T02:18:11.625Z,65.31
2022-08-17T02:20:43.628Z,64.87
2022-08-17T02:23:15.697Z,62.41
2022-08-17T02:25:48.881Z,61.31
2022-08-17T02:28:21.390Z,58.48
2022-08-17T02:31:01.747Z,57.68
2022-08-17T02:33:42.716Z,60.25
2022-08-17T02:36:15.632Z,66.75
2022-08-17T02:38:47.740Z,66.09
2022-08-17T02:41:19.287Z,63.14
2022-08-17T02:43:51.144Z,60.99
2022-08-17T02:46:22.787Z,57.98
2022-08-17T02:48:54.532Z,57.62
2022-08-17T02:51:26.461Z,61.02
2022-08-17T02:54:35.588Z,64.91
2022-08-17T02:56:49.654Z,66.34
2022-08-17T02:59:21.165Z,63.59
2022-08-17T03:01:53.735Z,62.07
2022-08-17T03:04:25.417Z,60.80
2022-08-17T03:06:56.938Z,58.12
2022-08-17T03:09:28.815Z,58.68
2022-08-17T03:12:07.525Z,60.61
2022-08-17T03:14:41.886Z,66.04
2022-08-17T03:17:17.114Z,65.02
2022-08-17T03:19:49.214Z,62.04
2022-08-17T03:22:36.693Z,60.07
2022-08-17T03:25:19.615Z,56.95
2022-08-17T03:27:54.518Z,58.17
2022-08-17T03:30:28.180Z,60.11
2022-08-17T03:33:01.744Z,64.05
2022-08-17T03:35:36.389Z,65.47
2022-08-17T03:38:08.874Z,62.24
2022-08-17T03:40:58.931Z,60.33
2022-08-17T03:43:33.372Z,57.17
2022-08-17T03:46:34.229Z,58.36
2022-08-17T03:49:26.667Z,60.55
2022-08-17T03:52:16.992Z,64.65
2022-08-17T03:55:11.441Z,64.82
2022-08-17T03:57:43.212Z,62.59
2022-08-17T04:00:17.817Z,60.47
2022-08-17T04:02:49.676Z,57.74
2022-08-17T04:05:22.022Z,58.18
2022-08-17T04:07:53.602Z,59.99
2022-08-17T04:10:26.534Z,63.93
2022-08-17T04:12:59.216Z,63.06
2022-08-17T04:15:31.118Z,60.27
2022-08-17T04:18:02.845Z,57.62
2022-08-17T04:20:37.527Z,56.75
2022-08-17T04:23:11.297Z,57.85
2022-08-17T04:25:48.200Z,59.40
2022-08-17T04:28:21.178Z,59.86
2022-08-17T04:30:52.797Z,59.92
2022-08-17T04:33:25.661Z,59.45
2022-08-17T04:35:59.873Z,58.91
2022-08-17T04:38:33.942Z,58.37
2022-08-17T04:41:25.241Z,57.36
2022-08-17T04:43:58.504Z,55.97
2022-08-17T04:46:33.882Z,55.20
2022-08-17T04:49:08.416Z,54.43
2022-08-17T04:51:54.546Z,53.37
2022-08-17T04:54:27.937Z,52.35
2022-08-17T04:56:59.593Z,51.43
2022-08-17T04:59:31.055Z,50.20
2022-08-17T05:02:02.733Z,49.05
2022-08-17T05:04:35.496Z,48.12
2022-08-17T05:07:07.163Z,47.10
2022-08-17T05:09:38.609Z,46.17
2022-08-17T05:12:10.524Z,45.56
2022-08-17T05:14:42.437Z,44.74
2022-08-17T05:17:14.049Z,44.17
2022-08-17T05:19:51.784Z,43.65
2022-08-17T05:22:23.639Z,42.90
2022-08-17T05:24:56.106Z,42.52
2022-08-17T05:27:30.837Z,41.94
2022-08-17T05:30:08.641Z,41.09
2022-08-17T05:32:40.442Z,40.03
2022-08-17T05:35:12.473Z,39.29
2022-08-17T05:37:44.534Z,38.36
2022-08-17T05:40:19.033Z,37.90
2022-08-17T05:42:51.168Z,37.54
2022-08-17T05:45:23.684Z,37.54
2022-08-17T05:48:16.750Z,38.24
2022-08-17T05:50:57.073Z,37.54
2022-08-17T05:53:31.812Z,37.09
2022-08-17T05:56:29.592Z,36.51
2022-08-17T05:59:12.247Z,35.91
2022-08-17T06:01:51.312Z,37.14
2022-08-17T06:04:42.920Z,39.40
2022-08-17T06:07:21.822Z,40.16
2022-08-17T06:10:04.355Z,39.65
2022-08-17T06:12:48.869Z,40.33
2022-08-17T06:15:32.210Z,39.95
2022-08-17T06:18:07.487Z,37.75
2022-08-17T06:20:48.155Z,37.88
2022-08-17T06:23:26.455Z,37.13
2022-08-17T06:26:03.801Z,35.83
2022-08-17T06:28:41.240Z,35.17
2022-08-17T06:31:20.029Z,34.34
2022-08-17T06:33:52.031Z,36.54
2022-08-17T06:36:40.281Z,37.15
2022-08-17T06:39:33.436Z,37.97
2022-08-17T06:43:02.269Z,37.91
2022-08-17T06:45:13.538Z,35.99
2022-08-17T06:47:50.152Z,34.91
2022-08-17T06:50:28.512Z,33.78
2022-08-17T06:53:05.315Z,33.06
2022-08-17T06:55:46.564Z,32.47
2022-08-17T06:58:22.980Z,31.27
2022-08-17T07:01:06.037Z,31.18
2022-08-17T07:03:43.840Z,30.45
2022-08-17T07:06:20.109Z,31.96
2022-08-17T07:09:00.048Z,30.50
2022-08-17T07:11:38.802Z,30.34
2022-08-17T07:14:39.271Z,31.41
2022-08-17T07:17:14.249Z,31.12
2022-08-17T07:19:50.131Z,30.35
2022-08-17T07:22:31.273Z,30.27
2022-08-17T07:25:23.332Z,31.08
2022-08-17T07:27:59.764Z,30.46
2022-08-17T07:30:44.580Z,31.54
2022-08-17T07:33:22.710Z,31.87
2022-08-17T07:35:54.904Z,31.52
2022-08-17T07:38:28.538Z,31.21
2022-08-17T07:41:06.611Z,31.59
2022-08-17T07:43:47.800Z,31.84
2022-08-17T07:46:39.645Z,34.75
2022-08-17T07:49:24.836Z,36.20
2022-08-17T07:52:24.326Z,38.23
2022-08-17T07:55:01.082Z,39.69
2022-08-17T07:57:37.138Z,40.87
2022-08-17T08:00:19.697Z,42.03
2022-08-17T08:03:28.547Z,43.53
2022-08-17T08:06:03.481Z,44.27
2022-08-17T08:08:42.310Z,45.48
2022-08-17T08:11:30.978Z,46.24
2022-08-17T08:14:22.515Z,46.64
2022-08-17T08:17:02.879Z,47.33
2022-08-17T08:19:35.439Z,47.92
2022-08-17T08:22:11.256Z,47.60
2022-08-17T08:25:02.299Z,48.09
2022-08-17T08:27:48.095Z,48.11
2022-08-17T08:30:22.269Z,48.32
2022-08-17T08:33:12.556Z,49.03
2022-08-17T08:35:50.060Z,49.31
2022-08-17T08:38:30.823Z,50.17
2022-08-17T08:41:17.267Z,50.70
2022-08-17T08:43:56.990Z,50.48
2022-08-17T08:46:38.577Z,50.85
2022-08-17T08:50:01.930Z,50.47
2022-08-17T08:52:39.967Z,50.40
2022-08-17T08:55:19.282Z,50.23
2022-08-17T08:57:57.502Z,50.19
2022-08-17T09:00:35.766Z,50.52
2022-08-17T09:03:51.922Z,49.92
2022-08-17T09:06:38.972Z,50.51
2022-08-17T09:09:24.494Z,51.12
2022-08-17T09:12:06.343Z,50.87
2022-08-17T09:14:46.904Z,50.65
2022-08-17T09:17:22.942Z,50.56
2022-08-17T09:20:00.937Z,49.80
2022-08-17T09:22:38.752Z,49.55
2022-08-17T09:25:13.624Z,49.60
2022-08-17T09:27:52.371Z,49.39
2022-08-17T09:30:25.022Z,49.06
2022-08-17T09:33:00.081Z,49.12
2022-08-17T09:35:37.668Z,49.28
2022-08-17T09:38:25.065Z,49.05
2022-08-17T09:41:08.634Z,48.95
2022-08-17T09:43:47.643Z,48.68
2022-08-17T09:46:22.832Z,48.38
2022-08-17T09:49:04.260Z,48.33
2022-08-17T09:51:41.145Z,48.36
2022-08-17T09:54:38.706Z,48.77
2022-08-17T09:57:32.299Z,49.06
2022-08-17T10:00:20.461Z,48.96
2022-08-17T10:03:17.182Z,49.29
2022-08-17T10:05:56.773Z,50.05
2022-08-17T10:08:38.105Z,49.95
2022-08-17T10:11:19.466Z,50.27
2022-08-17T10:13:58.371Z,49.82
2022-08-17T10:16:41.340Z,49.60
2022-08-17T10:19:20.363Z,49.57
2022-08-17T10:22:35.244Z,48.68
2022-08-17T10:25:42.586Z,48.44
2022-08-17T10:28:29.473Z,48.74
2022-08-17T10:31:32.970Z,48.02
2022-08-17T10:34:28.042Z,47.59
2022-08-17T10:37:23.593Z,47.35
2022-08-17T10:40:09.031Z,47.09
2022-08-17T10:42:53.306Z,47.25
2022-08-17T10:45:32.219Z,46.87
2022-08-17T10:48:22.021Z,47.19
2022-08-17T10:51:01.822Z,47.66
2022-08-17T10:53:54.934Z,47.27
2022-08-17T10:56:42.723Z,47.34
2022-08-17T10:59:59.425Z,47.75
2022-08-17T11:02:39.641Z,48.45
2022-08-17T11:05:23.668Z,48.60
2022-08-17T11:08:08.414Z,48.26
2022-08-17T11:11:07.578Z,47.88
2022-08-17T11:13:48.441Z,47.39
2022-08-17T11:16:45.608Z,47.42
2022-08-17T11:19:43.448Z,47.74
2022-08-17T11:22:33.587Z,48.18
2022-08-17T11:25:17.381Z,48.58
2022-08-17T11:27:53.846Z,48.58
2022-08-17T11:30:48.452Z,48.61
2022-08-17T11:33:56.019Z,49.19
2022-08-17T11:36:56.042Z,48.87
2022-08-17T11:39:42.777Z,48.64
2022-08-17T11:42:32.594Z,48.32
2022-08-17T11:45:32.292Z,47.87
2022-08-17T11:48:34.248Z,47.78
2022-08-17T11:51:29.470Z,47.70
2022-08-17T11:57:23.892Z,48.13
2022-08-17T12:00:11.237Z,47.85
2022-08-17T12:02:48.908Z,47.12
2022-08-17T12:05:38.765Z,46.27
2022-08-17T12:08:18.564Z,46.79
2022-08-17T12:10:59.291Z,47.03
2022-08-17T12:13:40.665Z,47.48
2022-08-17T12:16:17.355Z,47.95
2022-08-17T12:18:54.246Z,47.54
2022-08-17T12:21:43.641Z,47.26
2022-08-17T12:24:33.644Z,46.58
2022-08-17T12:27:08.021Z,46.89
2022-08-17T12:29:43.790Z,47.36
2022-08-17T12:32:20.586Z,46.62
2022-08-17T12:34:55.204Z,46.74
2022-08-17T12:37:31.981Z,46.54
2022-08-17T12:40:09.486Z,46.96
2022-08-17T12:42:41.773Z,46.65
2022-08-17T12:45:25.780Z,45.37
2022-08-17T12:48:07.840Z,45.09
2022-08-17T12:50:41.582Z,44.52
2022-08-17T12:53:15.848Z,44.59
2022-08-17T12:55:48.482Z,44.42
2022-08-17T12:58:25.261Z,44.66
2022-08-17T13:01:04.335Z,44.80
2022-08-17T13:03:45.543Z,44.99
2022-08-17T13:06:32.090Z,44.68
2022-08-17T13:09:14.510Z,43.82
2022-08-17T13:11:52.932Z,42.63
2022-08-17T13:14:28.143Z,43.10
2022-08-17T13:17:06.270Z,44.07
2022-08-17T13:19:50.553Z,44.57
2022-08-17T13:22:26.666Z,44.38
2022-08-17T13:25:03.656Z,43.69
2022-08-17T13:27:35.517Z,43.22
2022-08-17T13:30:20.753Z,42.90
2022-08-17T13:33:05.003Z,42.49
2022-08-17T13:35:45.888Z,42.74
2022-08-17T13:41:40.579Z,42.84
2022-08-17T13:44:36.563Z,42.82
2022-08-17T13:47:14.062Z,43.23
2022-08-17T13:49:48.899Z,43.24
2022-08-17T13:52:37.858Z,43.03
2022-08-17T13:55:15.401Z,43.14
2022-08-17T13:57:46.966Z,43.26
2022-08-17T14:00:30.022Z,43.32
2022-08-17T14:02:59.350Z,43.49
2022-08-17T14:05:28.959Z,43.39
2022-08-17T14:08:00.530Z,42.77
2022-08-17T14:10:29.662Z,42.88
2022-08-17T14:12:57.937Z,42.07
2022-08-17T14:15:54.543Z,42.16
2022-08-17T14:18:17.683Z,42.52
2022-08-17T14:20:46.655Z,42.39
2022-08-17T14:23:15.116Z,42.55
2022-08-17T14:25:45.192Z,42.42
2022-08-17T14:28:15.109Z,42.57
2022-08-17T14:30:43.557Z,43.05
2022-08-17T14:33:12.205Z,43.49
2022-08-17T14:35:40.661Z,44.01
2022-08-17T14:38:09.210Z,44.25
2022-08-17T14:40:38.560Z,43.18
2022-08-17T14:43:07.093Z,42.97
2022-08-17T14:45:35.523Z,43.59
2022-08-17T14:48:06.914Z,43.96
2022-08-17T14:50:38.420Z,44.38
2022-08-17T14:53:08.943Z,44.87
2022-08-17T14:55:40.132Z,45.30
2022-08-17T14:58:08.721Z,45.69
2022-08-17T15:00:38.994Z,45.89
2022-08-17T15:03:07.509Z,45.94
2022-08-17T15:05:38.400Z,46.01
2022-08-17T15:08:07.101Z,46.12
2022-08-17T15:10:36.759Z,45.80
2022-08-17T15:13:10.252Z,45.45
2022-08-17T15:15:39.229Z,45.43
2022-08-17T15:18:07.767Z,45.48
2022-08-17T15:20:36.310Z,45.24
2022-08-17T15:23:06.358Z,45.58
2022-08-17T15:25:38.871Z,45.85
2022-08-17T15:28:08.590Z,45.59
2022-08-17T15:30:42.221Z,45.70
2022-08-17T15:33:14.817Z,45.70
2022-08-17T15:35:50.486Z,46.04
2022-08-17T15:38:29.670Z,46.55
2022-08-17T15:41:31.116Z,46.66
2022-08-17T15:43:59.880Z,46.09
2022-08-17T15:46:30.928Z,46.07
2022-08-17T15:49:19.492Z,45.98
2022-08-17T15:51:56.607Z,46.06
2022-08-17T15:54:25.774Z,46.18
2022-08-17T15:57:01.145Z,46.10
2022-08-17T15:59:29.811Z,46.23
2022-08-17T16:03:13.775Z,46.02
2022-08-17T16:04:51.750Z,46.31
2022-08-17T16:07:24.454Z,46.44
2022-08-17T16:09:55.675Z,46.84
2022-08-17T16:12:24.653Z,47.17
2022-08-17T16:15:08.470Z,47.47
2022-08-17T16:17:39.976Z,47.77
2022-08-17T16:20:20.021Z,48.02
2022-08-17T16:22:50.544Z,48.17
2022-08-17T16:25:22.067Z,48.26
2022-08-17T16:27:52.756Z,48.44
2022-08-17T16:30:24.709Z,48.54
2022-08-17T16:32:54.533Z,48.46
2022-08-17T16:35:26.419Z,48.56
2022-08-17T16:37:58.527Z,48.60
2022-08-17T16:40:29.543Z,48.73
2022-08-17T16:42:59.629Z,48.83
2022-08-17T16:45:35.671Z,49.14
2022-08-17T16:48:07.521Z,49.41
2022-08-17T16:50:36.534Z,49.68
2022-08-17T16:53:08.320Z,49.94
2022-08-17T16:55:37.800Z,50.00
2022-08-17T16:58:45.417Z,50.43
2022-08-17T17:01:27.388Z,50.52
2022-08-17T17:03:59.580Z,51.39
2022-08-17T17:06:37.504Z,51.63
2022-08-17T17:09:10.352Z,52.16
2022-08-17T17:11:43.884Z,52.64
2022-08-17T17:14:17.507Z,53.25
2022-08-17T17:16:51.870Z,53.62
2022-08-17T17:19:34.628Z,53.93
2022-08-17T17:22:13.603Z,54.51
2022-08-17T17:24:51.322Z,54.84
2022-08-17T17:27:36.313Z,55.33
2022-08-17T17:30:10.104Z,55.50
2022-08-17T17:32:46.443Z,56.29
2022-08-17T17:35:22.703Z,56.33
2022-08-17T17:37:52.912Z,56.68
2022-08-17T17:40:25.161Z,57.30
2022-08-17T17:43:09.270Z,57.95
2022-08-17T17:45:52.873Z,57.37
2022-08-17T17:48:21.312Z,57.62
2022-08-17T17:51:01.994Z,58.10
2022-08-17T17:53:43.009Z,58.21
2022-08-17T17:56:43.271Z,57.77
2022-08-17T17:59:17.565Z,59.38
2022-08-17T18:01:55.028Z,60.52
2022-08-17T18:04:30.562Z,61.12
2022-08-17T18:07:18.989Z,61.63
2022-08-17T18:10:19.739Z,67.44
2022-08-17T18:13:10.778Z,65.37
2022-08-17T18:15:50.287Z,58.44
2022-08-17T18:18:37.265Z,56.74
2022-08-17T18:21:17.870Z,57.38
2022-08-17T18:23:53.835Z,58.34
2022-08-17T18:26:41.924Z,59.05
2022-08-17T18:29:38.193Z,60.35
2022-08-17T18:32:30.586Z,61.23
2022-08-17T18:35:05.051Z,66.40
2022-08-17T18:37:45.533Z,64.44
2022-08-17T18:40:39.083Z,58.95
2022-08-17T18:43:22.956Z,57.85
2022-08-17T18:45:53.860Z,58.97
2022-08-17T18:48:38.606Z,60.33
2022-08-17T18:51:40.839Z,64.81
2022-08-17T18:54:22.034Z,65.13
2022-08-17T18:56:53.820Z,58.46
2022-08-17T18:59:42.200Z,57.89
2022-08-17T19:02:45.597Z,59.25
2022-08-17T19:05:27.125Z,60.34
2022-08-17T19:08:18.552Z,65.21
2022-08-17T19:10:50.200Z,64.17
2022-08-17T19:13:24.887Z,59.14
2022-08-17T19:16:12.058Z,57.71
2022-08-17T19:18:48.745Z,59.13
2022-08-17T19:21:21.360Z,60.80
2022-08-17T19:23:57.969Z,65.16
2022-08-17T19:26:53.742Z,64.26
2022-08-17T19:29:24.984Z,60.98
2022-08-17T19:31:54.597Z,57.42
2022-08-17T19:34:30.073Z,56.57
2022-08-17T19:37:09.421Z,58.06
2022-08-17T19:39:50.480Z,60.80
2022-08-17T19:42:41.823Z,65.97
2022-08-17T19:45:22.441Z,64.59
2022-08-17T19:48:02.858Z,61.45
2022-08-17T19:50:37.779Z,57.53
2022-08-17T19:53:17.840Z,57.29
2022-08-17T19:55:59.414Z,58.50
2022-08-17T19:58:51.896Z,60.10
2022-08-17T20:01:34.876Z,66.37
2022-08-17T20:04:12.421Z,64.64
2022-08-17T20:06:46.076Z,61.15
2022-08-17T20:09:20.777Z,57.72
2022-08-17T20:11:55.538Z,57.75
2022-08-17T20:14:30.683Z,59.57
2022-08-17T20:17:02.590Z,63.89
2022-08-17T20:19:42.808Z,64.46
2022-08-17T20:22:20.366Z,62.58
2022-08-17T20:24:58.360Z,58.31
2022-08-17T20:27:31.537Z,58.24
2022-08-17T20:30:06.573Z,60.01
2022-08-17T20:32:48.684Z,64.43
2022-08-17T20:35:24.486Z,63.64
2022-08-17T20:37:57.159Z,60.65
2022-08-17T20:40:29.118Z,57.02
2022-08-17T20:42:59.099Z,57.31
2022-08-17T20:45:58.307Z,58.61
2022-08-17T20:48:38.307Z,60.93
2022-08-17T20:51:22.221Z,66.51
2022-08-17T20:54:40.442Z,64.92
2022-08-17T20:57:14.212Z,61.16
2022-08-17T21:00:13.844Z,57.41
2022-08-17T21:02:44.000Z,57.84
2022-08-17T21:05:31.660Z,59.15
2022-08-17T21:08:12.640Z,64.24
2022-08-17T21:10:40.664Z,64.01
2022-08-17T21:13:34.170Z,61.54
2022-08-17T21:16:20.598Z,57.21
2022-08-17T21:19:00.136Z,57.03
2022-08-17T21:21:37.377Z,59.76
2022-08-17T21:24:18.685Z,65.69
2022-08-17T21:26:56.347Z,64.88
2022-08-17T21:29:30.831Z,62.99
2022-08-17T21:32:24.705Z,60.71
2022-08-17T21:35:26.049Z,57.53
2022-08-17T21:38:01.616Z,58.73
2022-08-17T21:40:32.511Z,60.60
2022-08-17T21:43:16.679Z,64.57
2022-08-17T21:45:57.072Z,64.53
2022-08-17T21:48:26.733Z,63.12
2022-08-17T21:51:03.227Z,61.13
2022-08-17T21:53:38.288Z,58.25
2022-08-17T21:56:11.327Z,58.57
2022-08-17T21:58:47.900Z,60.46
2022-08-17T22:01:23.636Z,64.79
2022-08-17T22:04:03.215Z,64.04
2022-08-17T22:06:37.915Z,61.89
2022-08-17T22:09:17.199Z,58.27
2022-08-17T22:11:55.244Z,58.32
2022-08-17T22:14:26.373Z,60.95
2022-08-17T22:17:08.008Z,63.33
2022-08-17T22:19:38.369Z,65.54
2022-08-17T22:22:09.651Z,62.88
2022-08-17T22:24:38.712Z,61.05
2022-08-17T22:27:10.841Z,58.35
2022-08-17T22:29:53.251Z,58.34
2022-08-17T22:32:41.995Z,60.45
2022-08-17T22:35:35.929Z,64.95
2022-08-17T22:38:27.211Z,64.63
2022-08-17T22:40:57.166Z,62.15
2022-08-17T22:43:29.095Z,60.35
2022-08-17T22:45:59.561Z,57.32
2022-08-17T22:48:30.562Z,57.61
2022-08-17T22:51:12.678Z,59.46
2022-08-17T22:54:06.776Z,63.76
2022-08-17T22:56:53.727Z,65.36
2022-08-17T22:59:42.939Z,62.79
2022-08-17T23:02:24.408Z,60.75
2022-08-17T23:04:56.820Z,57.64
2022-08-17T23:07:26.237Z,58.28
2022-08-17T23:09:57.191Z,60.58
2022-08-17T23:12:27.086Z,65.24
2022-08-17T23:15:00.241Z,65.03
2022-08-17T23:17:36.903Z,63.19
2022-08-17T23:20:11.411Z,60.50
2022-08-17T23:22:52.438Z,57.68
2022-08-17T23:25:27.313Z,57.99
2022-08-17T23:27:57.767Z,59.07
2022-08-17T23:30:27.824Z,63.79
2022-08-17T23:32:58.888Z,65.05
2022-08-17T23:35:39.806Z,63.33
2022-08-17T23:38:10.389Z,61.71
2022-08-17T23:40:40.065Z,58.57
2022-08-17T23:43:17.604Z,58.24
2022-08-17T23:45:54.227Z,59.72
2022-08-17T23:48:32.589Z,65.90
2022-08-17T23:51:12.182Z,65.44
2022-08-17T23:53:45.490Z,62.69
2022-08-17T23:56:14.267Z,60.67
2022-08-17T23:58:44.059Z,57.94
